Time;durP1;ratioP1;P1;durP2;ratioP2;P2;SDS_P1;SDS_P2;PMS_P1;PMS_P2;Temp;Humidity;BMP_temperature;BMP_pressure;BME280_temperature;BME280_humidity;BME280_pressure;Samples;Min_cycle;Max_cycle;Signal;HPM_P1;HPM_P2
2023/11/02 00:01:09;;;;;;;1.40;1.00;;;;;;;7.84;84.17;93949.13;6136883;23;20135;-83
2023/11/02 00:03:37;;;;;;;1.37;1.10;;;;;;;7.84;84.14;93920.69;6111830;23;20237;-84
2023/11/02 00:06:31;;;;;;;1.23;0.83;;;;;;;7.92;82.66;93908.53;6135084;23;20238;-83
2023/11/02 00:09:17;;;;;;;0.93;0.83;;;;;;;7.86;82.91;93910.97;6111660;23;20218;-83
2023/11/02 00:12:13;;;;;;;1.40;1.20;;;;;;;7.86;83.04;93913.56;6129083;23;20139;-81
2023/11/02 00:14:51;;;;;;;3.10;1.10;;;;;;;7.80;83.51;93907.31;6103214;23;20190;-82
2023/11/02 00:17:29;;;;;;;3.13;1.37;;;;;;;7.82;83.40;93891.63;6128880;23;20181;-82
2023/11/02 00:19:54;;;;;;;1.70;1.10;;;;;;;7.80;83.45;93884.06;6154607;23;20231;-82
2023/11/02 00:22:21;;;;;;;2.13;1.27;;;;;;;7.78;83.06;93867.13;6128597;23;20163;-82
2023/11/02 00:24:48;;;;;;;2.13;1.47;;;;;;;7.76;83.39;93863.88;6103589;23;20159;-83
2023/11/02 00:27:14;;;;;;;2.43;1.10;;;;;;;7.79;82.93;93866.16;6104287;23;20234;-83
2023/11/02 00:29:39;;;;;;;3.57;1.00;;;;;;;7.76;83.17;93858.72;6104075;23;20229;-82
2023/11/02 00:32:05;;;;;;;1.60;1.30;;;;;;;7.76;82.60;93836.28;6128327;23;20162;-83
2023/11/02 00:34:31;;;;;;;1.73;1.10;;;;;;;7.75;82.91;93828.69;6127772;23;20587;-83
2023/11/02 00:36:58;;;;;;;6.70;1.40;;;;;;;7.80;83.12;93829.00;6104043;23;20495;-82
2023/11/02 00:39:24;;;;;;;1.43;0.90;;;;;;;7.80;83.29;93824.63;6103827;23;20239;-83
2023/11/02 00:41:49;;;;;;;3.13;1.40;;;;;;;7.86;83.61;93816.19;6103839;23;20174;-83
2023/11/02 00:44:17;;;;;;;4.93;1.20;;;;;;;7.93;83.48;93811.91;6129240;23;20170;-83
2023/11/02 00:46:43;;;;;;;3.20;1.30;;;;;;;7.95;82.96;93827.25;6129873;23;20159;-82
2023/11/02 00:49:17;;;;;;;3.03;0.97;;;;;;;7.98;83.03;93821.75;6128988;23;20189;-83
2023/11/02 00:51:42;;;;;;;1.30;1.20;;;;;;;8.05;82.93;93819.28;6129313;23;20147;-82
2023/11/02 00:54:08;;;;;;;1.90;1.00;;;;;;;8.15;82.25;93822.44;6103400;23;20179;-82
2023/11/02 00:56:38;;;;;;;2.17;1.00;;;;;;;8.15;82.65;93827.59;6103886;23;20194;-83
2023/11/02 00:59:04;;;;;;;2.93;1.03;;;;;;;8.13;82.91;93822.59;6104253;23;20305;-82
2023/11/02 01:01:30;;;;;;;6.20;1.20;;;;;;;8.20;82.30;93815.72;6104076;23;20155;-82
2023/11/02 01:03:59;;;;;;;2.70;1.57;;;;;;;8.12;82.71;93804.66;6126922;23;20161;-80
2023/11/02 01:06:30;;;;;;;5.27;1.37;;;;;;;8.07;82.86;93797.44;6103987;23;20588;-81
2023/11/02 01:08:57;;;;;;;2.77;1.33;;;;;;;7.99;82.72;93784.59;6104236;23;20183;-81
2023/11/02 01:11:28;;;;;;;2.30;1.27;;;;;;;8.17;82.35;93786.84;6104063;23;20237;-82
2023/11/02 01:13:56;;;;;;;2.30;1.47;;;;;;;8.10;82.46;93776.41;6104393;23;20171;-82
2023/11/02 01:16:21;;;;;;;2.83;1.47;;;;;;;8.18;81.84;93763.41;6103679;23;20612;-81
2023/11/02 01:18:47;;;;;;;2.60;1.23;;;;;;;8.24;81.86;93767.06;6128812;23;20179;-80
2023/11/02 01:21:14;;;;;;;2.07;1.30;;;;;;;8.29;81.74;93758.78;6104219;23;20271;-80
2023/11/02 01:23:41;;;;;;;1.73;1.20;;;;;;;8.21;81.30;93757.88;6128091;23;20571;-80
2023/11/02 01:26:39;;;;;;;3.07;1.50;;;;;;;8.33;80.82;93740.16;6128164;23;20263;-81
2023/11/02 01:29:04;;;;;;;1.43;1.10;;;;;;;8.22;80.49;93728.47;6128407;23;20702;-81
2023/11/02 01:31:35;;;;;;;3.20;1.40;;;;;;;8.20;80.61;93717.47;6153730;23;20175;-81
2023/11/02 01:34:02;;;;;;;2.23;1.33;;;;;;;8.22;80.08;93712.16;6127960;23;20211;-81
2023/11/02 01:36:38;;;;;;;1.33;0.90;;;;;;;8.29;79.66;93707.03;6127426;23;20167;-80
2023/11/02 01:39:12;;;;;;;1.93;1.10;;;;;;;8.28;79.27;93708.03;6103581;23;20175;-82
2023/11/02 01:41:43;;;;;;;0.90;0.90;;;;;;;8.24;79.09;93695.47;6154277;23;20225;-81
2023/11/02 01:44:36;;;;;;;1.73;0.80;;;;;;;8.35;78.76;93689.06;6127813;23;20165;-82
2023/11/02 01:47:21;;;;;;;3.20;1.10;;;;;;;8.38;78.17;93687.91;6128401;23;20147;-81
2023/11/02 01:50:09;;;;;;;4.13;0.90;;;;;;;8.34;78.37;93694.41;6127657;23;20568;-80
2023/11/02 01:52:47;;;;;;;2.00;1.00;;;;;;;8.46;77.74;93692.97;6103306;23;20187;-82
2023/11/02 01:55:19;;;;;;;4.80;1.10;;;;;;;8.43;78.00;93693.34;6153437;23;20151;-82
2023/11/02 01:58:17;;;;;;;1.93;1.00;;;;;;;8.47;77.55;93690.22;6128876;23;20230;-80
2023/11/02 02:00:49;;;;;;;1.77;1.00;;;;;;;8.34;77.67;93673.72;6128270;23;20158;-82
2023/11/02 02:03:44;;;;;;;2.57;0.80;;;;;;;8.52;76.99;93658.66;6127486;23;20132;-81
2023/11/02 02:06:22;;;;;;;1.13;1.03;;;;;;;8.46;77.17;93657.56;6123490;23;20167;-82
2023/11/02 02:09:10;;;;;;;3.17;0.93;;;;;;;8.33;77.54;93664.34;6103810;23;20178;-82
2023/11/02 02:11:59;;;;;;;3.00;1.10;;;;;;;8.49;76.66;93646.88;6127765;23;20158;-80
2023/11/02 02:14:40;;;;;;;1.50;1.03;;;;;;;8.48;76.80;93644.44;6103165;23;20241;-82
2023/11/02 02:17:24;;;;;;;2.97;1.10;;;;;;;8.57;76.19;93643.41;6103374;23;20243;-81
2023/11/02 02:19:56;;;;;;;2.37;1.07;;;;;;;8.59;76.22;93638.03;6128050;23;20265;-80
2023/11/02 02:22:25;;;;;;;1.50;1.20;;;;;;;8.49;76.17;93626.19;6127833;23;20169;-81
2023/11/02 02:25:18;;;;;;;2.17;0.90;;;;;;;8.58;75.89;93613.94;6103331;23;20164;-81
2023/11/02 02:28:07;;;;;;;1.27;0.90;;;;;;;8.64;75.91;93613.19;6103748;23;20295;-81
2023/11/02 02:30:39;;;;;;;2.70;0.93;;;;;;;8.59;75.66;93607.00;6127920;23;20202;-81
2023/11/02 02:33:18;;;;;;;2.57;0.83;;;;;;;8.63;75.47;93610.78;6127553;23;20176;-81
2023/11/02 02:35:56;;;;;;;2.23;0.90;;;;;;;8.57;75.50;93599.41;6102435;23;20186;-81
2023/11/02 02:38:29;;;;;;;2.63;0.90;;;;;;;8.75;74.64;93578.28;6128081;23;20185;-80
2023/11/02 02:41:08;;;;;;;2.90;1.33;;;;;;;8.52;74.78;93575.88;6128197;23;20635;-80
2023/11/02 02:43:34;;;;;;;2.63;0.90;;;;;;;8.59;75.07;93578.53;6102967;23;20151;-81
2023/11/02 02:46:03;;;;;;;0.90;0.80;;;;;;;8.66;74.57;93574.22;6102878;23;20221;-80
2023/11/02 02:48:29;;;;;;;0.70;0.70;;;;;;;8.73;74.13;93578.47;6126917;23;20539;-81
2023/11/02 02:50:57;;;;;;;2.70;0.80;;;;;;;8.64;74.69;93576.97;6127939;23;20151;-81
2023/11/02 02:53:26;;;;;;;0.97;0.73;;;;;;;8.70;74.13;93571.06;6129519;23;20179;-81
2023/11/02 02:55:56;;;;;;;1.37;0.60;;;;;;;8.71;74.08;93577.84;6124380;23;20151;-82
2023/11/02 02:58:22;;;;;;;1.43;0.80;;;;;;;8.59;74.37;93574.16;6124434;23;20175;-84
2023/11/02 03:00:48;;;;;;;6.67;1.20;;;;;;;8.84;73.58;93576.41;6112100;23;20227;-82
2023/11/02 03:03:15;;;;;;;1.33;0.70;;;;;;;8.54;74.30;93555.78;6111377;23;20159;-83
2023/11/02 03:05:41;;;;;;;2.20;0.90;;;;;;;8.70;73.77;93545.19;6110163;23;20238;-84
2023/11/02 03:08:09;;;;;;;1.00;0.90;;;;;;;8.72;74.16;93558.75;6134516;23;20202;-83
2023/11/02 03:10:36;;;;;;;3.00;0.97;;;;;;;8.80;74.20;93553.44;6109937;23;20155;-81
2023/11/02 03:13:03;;;;;;;1.70;0.70;;;;;;;8.49;74.95;93538.25;6107870;23;20183;-82
2023/11/02 03:15:31;;;;;;;2.17;1.00;;;;;;;8.82;75.08;93537.72;6107873;23;20175;-82
2023/11/02 03:18:14;;;;;;;0.93;0.90;;;;;;;8.77;75.97;93542.69;6084991;23;20162;-83
2023/11/02 03:20:42;;;;;;;1.53;0.97;;;;;;;8.68;77.10;93536.81;6133293;23;20540;-84
2023/11/02 03:23:41;;;;;;;2.47;1.20;;;;;;;8.60;77.41;93531.78;6131789;23;20509;-83
2023/11/02 03:26:21;;;;;;;2.10;0.90;;;;;;;8.65;78.13;93531.19;6157681;23;20597;-84
2023/11/02 03:29:09;;;;;;;1.03;0.70;;;;;;;8.58;78.53;93527.78;6129998;23;20213;-83
2023/11/02 03:32:06;;;;;;;2.10;1.10;;;;;;;8.57;78.59;93519.22;6130613;23;20286;-83
2023/11/02 03:34:39;;;;;;;1.27;0.77;;;;;;;8.47;79.59;93514.31;6128461;23;20241;-84
2023/11/02 03:37:32;;;;;;;0.67;0.60;;;;;;;8.38;79.89;93505.06;6128590;23;20155;-82
2023/11/02 03:40:20;;;;;;;2.33;0.80;;;;;;;8.49;79.94;93489.09;6155074;23;20230;-84
2023/11/02 03:43:04;;;;;;;2.03;0.80;;;;;;;8.37;80.65;93466.47;6103330;23;20159;-83
2023/11/02 03:46:10;;;;;;;0.93;0.80;;;;;;;8.34;81.31;93435.78;6102880;23;20246;-82
2023/11/02 03:48:58;;;;;;;1.17;1.00;;;;;;;8.34;81.47;93422.84;6127227;23;20631;-83
2023/11/02 03:51:45;;;;;;;2.07;0.93;;;;;;;8.17;82.28;93411.97;6128517;23;20152;-82
2023/11/02 03:54:42;;;;;;;2.20;0.83;;;;;;;8.16;82.83;93390.47;6103157;23;20215;-82
2023/11/02 03:57:45;;;;;;;2.20;1.00;;;;;;;8.12;82.81;93375.50;6127842;23;20611;-82
2023/11/02 04:00:21;;;;;;;2.40;0.80;;;;;;;8.13;83.27;93346.91;6104563;23;20175;-83
2023/11/02 04:02:55;;;;;;;2.50;1.10;;;;;;;8.08;83.36;93328.56;6126417;23;20161;-83
2023/11/02 04:05:23;;;;;;;1.43;0.70;;;;;;;8.02;83.76;93321.53;6102687;23;20171;-82
2023/11/02 04:08:03;;;;;;;2.70;1.00;;;;;;;8.01;83.85;93327.69;6128066;23;20167;-82
2023/11/02 04:10:30;;;;;;;1.20;1.10;;;;;;;8.07;83.52;93321.78;6103592;23;20179;-82
2023/11/02 04:13:11;;;;;;;4.77;1.07;;;;;;;7.92;83.90;93295.22;6127769;23;20180;-82
2023/11/02 04:15:36;;;;;;;1.53;1.03;;;;;;;8.02;84.30;93305.22;6129144;23;20548;-82
2023/11/02 04:18:01;;;;;;;2.20;0.97;;;;;;;8.06;84.13;93286.59;6131164;23;20156;-81
2023/11/02 04:20:27;;;;;;;1.43;0.80;;;;;;;8.09;83.94;93290.59;6129792;23;20576;-82
2023/11/02 04:22:52;;;;;;;1.87;1.00;;;;;;;8.13;84.12;93290.03;6129824;23;20155;-83
2023/11/02 04:25:18;;;;;;;3.13;1.30;;;;;;;8.15;83.51;93295.81;6104300;23;20164;-83
2023/11/02 04:27:43;;;;;;;1.50;1.10;;;;;;;8.11;84.33;93291.97;6129921;23;20151;-81
2023/11/02 04:30:09;;;;;;;2.27;1.10;;;;;;;8.20;84.10;93267.59;6104827;23;20195;-82
2023/11/02 04:32:34;;;;;;;1.63;1.00;;;;;;;8.19;84.43;93266.00;6129134;23;20242;-81
2023/11/02 04:35:00;;;;;;;1.20;0.97;;;;;;;8.21;83.59;93253.66;6155540;23;20152;-81
2023/11/02 04:37:25;;;;;;;2.83;1.20;;;;;;;8.31;84.06;93239.63;6105346;23;20229;-82
2023/11/02 04:39:50;;;;;;;1.47;0.90;;;;;;;8.22;84.17;93232.03;6105917;23;20194;-80
2023/11/02 04:42:17;;;;;;;1.23;0.97;;;;;;;8.35;84.33;93220.97;6106334;23;20158;-82
2023/11/02 04:44:43;;;;;;;1.17;0.90;;;;;;;8.23;85.01;93207.75;6104651;23;20243;-81
2023/11/02 04:47:08;;;;;;;0.93;0.90;;;;;;;8.23;85.37;93228.44;6129163;23;20191;-82
2023/11/02 04:49:36;;;;;;;1.27;1.00;;;;;;;8.31;85.37;93239.63;6105272;23;20660;-81
2023/11/02 04:52:04;;;;;;;1.37;1.03;;;;;;;8.27;85.59;93234.03;6105258;23;20160;-81
2023/11/02 04:54:30;;;;;;;3.40;0.80;;;;;;;8.26;85.51;93240.19;6156014;23;20206;-82
2023/11/02 04:56:55;;;;;;;2.27;0.80;;;;;;;8.41;85.04;93240.13;6104562;23;20159;-81
2023/11/02 04:59:22;;;;;;;1.87;0.83;;;;;;;8.45;84.24;93226.59;6105983;23;20262;-83
2023/11/02 05:01:48;;;;;;;1.23;1.10;;;;;;;8.39;84.67;93213.63;6130019;23;20187;-82
2023/11/02 05:04:13;;;;;;;2.60;1.13;;;;;;;8.47;83.96;93198.75;6080543;23;20730;-81
2023/11/02 05:06:39;;;;;;;1.00;0.90;;;;;;;8.41;83.91;93196.16;6128308;23;20202;-82
2023/11/02 05:09:05;;;;;;;2.43;1.20;;;;;;;8.54;83.63;93187.66;6129135;23;20183;-82
2023/11/02 05:11:31;;;;;;;1.20;1.03;;;;;;;8.59;82.88;93178.34;6128896;23;20242;-80
2023/11/02 05:13:56;;;;;;;2.40;1.20;;;;;;;8.45;82.92;93179.25;6128482;23;20568;-81
2023/11/02 05:16:22;;;;;;;2.90;1.33;;;;;;;8.49;82.97;93152.03;6103301;23;20163;-82
2023/11/02 05:18:47;;;;;;;1.97;1.37;;;;;;;8.59;82.27;93139.53;6129077;23;20764;-82
2023/11/02 05:21:12;;;;;;;1.07;1.00;;;;;;;8.63;82.28;93135.53;6104827;23;20607;-82
2023/11/02 05:23:38;;;;;;;1.23;1.00;;;;;;;8.68;81.98;93132.38;6104160;23;20159;-82
2023/11/02 05:26:03;;;;;;;2.40;1.00;;;;;;;8.54;82.42;93122.97;6103133;23;20167;-81
2023/11/02 05:28:29;;;;;;;1.40;1.20;;;;;;;8.60;81.68;93135.94;6128066;23;20258;-80
2023/11/02 05:30:54;;;;;;;2.20;1.10;;;;;;;8.47;82.64;93151.41;6103786;23;20656;-80
2023/11/02 05:33:20;;;;;;;1.90;1.03;;;;;;;8.62;82.36;93170.19;6103835;23;20266;-83
2023/11/02 05:35:45;;;;;;;2.43;1.33;;;;;;;8.68;81.78;93178.97;6104344;23;20246;-82
2023/11/02 05:38:10;;;;;;;1.83;1.13;;;;;;;8.50;83.06;93189.84;6105151;23;20201;-81
2023/11/02 05:40:36;;;;;;;1.40;1.30;;;;;;;8.66;82.56;93207.63;6128455;23;20198;-82
2023/11/02 05:43:01;;;;;;;2.73;1.50;;;;;;;8.33;84.27;93232.47;6104212;23;20155;-83
2023/11/02 05:45:26;;;;;;;1.80;1.37;;;;;;;8.21;85.36;93260.63;6103576;23;20639;-83
2023/11/02 05:47:52;;;;;;;1.50;1.40;;;;;;;8.44;84.96;93265.59;6103244;23;20643;-84
2023/11/02 05:50:18;;;;;;;2.10;1.67;;;;;;;8.67;83.79;93279.06;6127976;23;20171;-84
2023/11/02 05:52:44;;;;;;;2.13;1.17;;;;;;;8.36;85.36;93283.84;6127805;23;20650;-84
2023/11/02 05:55:09;;;;;;;3.13;1.30;;;;;;;8.54;85.35;93296.28;6102167;23;20250;-84
2023/11/02 05:57:35;;;;;;;2.70;1.50;;;;;;;8.63;85.63;93264.09;6103391;23;20164;-84
2023/11/02 06:00:00;;;;;;;1.87;1.40;;;;;;;8.60;85.91;93282.59;6127898;23;20175;-82
2023/11/02 06:02:27;;;;;;;2.53;1.23;;;;;;;8.58;87.01;93271.66;6102997;23;20170;-83
2023/11/02 06:04:53;;;;;;;2.23;1.27;;;;;;;8.68;86.77;93272.91;6102494;23;20498;-83
2023/11/02 06:07:18;;;;;;;1.90;1.50;;;;;;;8.69;87.02;93269.31;6103164;23;20155;-84
2023/11/02 06:09:44;;;;;;;1.30;1.20;;;;;;;8.62;87.27;93247.00;6102920;23;20187;-84
2023/11/02 06:12:09;;;;;;;1.53;1.30;;;;;;;8.63;87.96;93244.22;6102526;23;20171;-82
2023/11/02 06:14:35;;;;;;;1.57;1.23;;;;;;;8.60;87.64;93225.69;6151011;23;20183;-82
2023/11/02 06:17:01;;;;;;;2.57;1.20;;;;;;;8.60;88.71;93218.72;6127388;23;20178;-84
2023/11/02 06:19:26;;;;;;;1.43;1.30;;;;;;;8.62;88.39;93224.50;6102594;23;20179;-83
2023/11/02 06:21:51;;;;;;;2.70;1.20;;;;;;;8.63;88.92;93228.69;6102808;23;20206;-83
2023/11/02 06:24:17;;;;;;;2.03;1.40;;;;;;;8.46;89.91;93228.19;6102418;23;20151;-84
2023/11/02 06:26:42;;;;;;;1.60;1.20;;;;;;;8.59;89.64;93227.47;6102659;23;20202;-83
2023/11/02 06:29:10;;;;;;;2.30;1.40;;;;;;;8.67;89.05;93223.94;6127195;23;20191;-83
2023/11/02 06:31:36;;;;;;;2.67;1.30;;;;;;;8.60;89.63;93234.25;6127558;23;20155;-83
2023/11/02 06:34:01;;;;;;;2.43;1.50;;;;;;;8.68;89.26;93228.13;6102273;23;20267;-83
2023/11/02 06:36:27;;;;;;;1.40;1.20;;;;;;;8.68;89.91;93228.91;6126252;23;20155;-83
2023/11/02 06:38:52;;;;;;;2.07;1.20;;;;;;;8.72;89.00;93224.16;6102747;23;20186;-83
2023/11/02 06:41:18;;;;;;;1.27;1.17;;;;;;;8.58;90.20;93225.09;6102835;23;20156;-83
2023/11/02 06:43:43;;;;;;;1.90;1.70;;;;;;;8.52;90.87;93217.09;6126776;23;20155;-83
2023/11/02 06:46:08;;;;;;;1.57;1.17;;;;;;;8.68;90.20;93208.22;6126641;23;20409;-82
2023/11/02 06:48:34;;;;;;;2.20;1.30;;;;;;;8.49;91.19;93203.75;6101990;23;20175;-82
2023/11/02 06:50:59;;;;;;;2.60;1.50;;;;;;;8.56;91.04;93216.69;6102450;23;20175;-83
2023/11/02 06:53:25;;;;;;;1.67;1.40;;;;;;;8.70;90.23;93210.59;6126590;23;20650;-82
2023/11/02 06:55:50;;;;;;;2.60;1.47;;;;;;;8.58;91.51;93209.56;6126289;23;20205;-82
2023/11/02 06:58:17;;;;;;;1.53;1.43;;;;;;;8.61;91.28;93207.38;6102755;23;20180;-82
2023/11/02 07:00:43;;;;;;;1.30;1.17;;;;;;;8.62;91.24;93205.59;6102744;23;20194;-82
2023/11/02 07:03:09;;;;;;;2.07;1.20;;;;;;;8.51;91.89;93201.78;6125467;23;20162;-82
2023/11/02 07:05:34;;;;;;;1.80;1.40;;;;;;;8.63;91.36;93205.41;6126170;23;20567;-82
2023/11/02 07:07:59;;;;;;;1.90;1.37;;;;;;;8.69;91.34;93193.50;6127156;23;20282;-83
2023/11/02 07:10:25;;;;;;;1.60;1.40;;;;;;;8.60;91.59;93192.84;6102150;23;20620;-82
2023/11/02 07:12:52;;;;;;;1.33;1.20;;;;;;;8.78;90.83;93189.75;6126910;23;20175;-83
2023/11/02 07:15:18;;;;;;;2.17;1.40;;;;;;;8.69;91.64;93186.53;6102177;23;20159;-83
2023/11/02 07:17:43;;;;;;;1.30;1.20;;;;;;;8.73;91.62;93189.50;6102780;23;20565;-83
2023/11/02 07:20:09;;;;;;;1.60;1.50;;;;;;;8.76;91.61;93169.25;6102455;23;20234;-82
2023/11/02 07:22:34;;;;;;;3.00;1.20;;;;;;;8.79;91.46;93148.13;6126930;23;20163;-83
2023/11/02 07:25:01;;;;;;;1.70;1.20;;;;;;;8.70;92.00;93154.47;6126565;23;20588;-82
2023/11/02 07:27:28;;;;;;;1.43;1.33;;;;;;;8.66;92.41;93137.75;6126932;23;20256;-82
2023/11/02 07:29:54;;;;;;;2.23;1.60;;;;;;;8.76;92.14;93147.75;6102444;23;20187;-82
2023/11/02 07:32:20;;;;;;;1.77;1.30;;;;;;;8.55;92.79;93140.09;6102399;23;20536;-82
2023/11/02 07:34:46;;;;;;;2.07;1.60;;;;;;;8.79;91.90;93148.13;6101884;23;20194;-83
2023/11/02 07:37:12;;;;;;;1.77;1.40;;;;;;;8.72;92.60;93143.94;6102824;23;20206;-83
2023/11/02 07:39:37;;;;;;;3.17;1.37;;;;;;;8.83;92.02;93129.63;6102374;23;20179;-82
2023/11/02 07:42:02;;;;;;;3.47;1.37;;;;;;;8.88;91.31;93135.81;6101808;23;20219;-83
2023/11/02 07:44:29;;;;;;;1.40;1.17;;;;;;;8.87;92.11;93130.84;6152319;23;20186;-82
2023/11/02 07:46:54;;;;;;;1.57;1.20;;;;;;;8.91;91.86;93122.47;6102233;23;20155;-83
2023/11/02 07:49:19;;;;;;;2.80;1.20;;;;;;;8.97;91.56;93126.09;6103430;23;20242;-82
2023/11/02 07:51:45;;;;;;;1.37;1.27;;;;;;;9.04;91.33;93119.94;6104732;23;20155;-82
2023/11/02 07:54:10;;;;;;;3.83;1.40;;;;;;;8.89;92.53;93119.28;6128497;23;20550;-82
2023/11/02 07:56:38;;;;;;;2.07;1.60;;;;;;;8.90;92.68;93127.84;6105176;23;20234;-82
2023/11/02 07:59:04;;;;;;;2.17;1.30;;;;;;;9.11;91.56;93135.47;6106726;23;20190;-81
2023/11/02 08:01:30;;;;;;;3.10;1.60;;;;;;;9.11;91.55;93124.31;6129782;23;20171;-81
2023/11/02 08:03:56;;;;;;;1.53;1.40;;;;;;;8.88;92.40;93128.06;6104957;23;20206;-81
2023/11/02 08:06:21;;;;;;;3.37;1.30;;;;;;;9.16;91.06;93114.94;6128154;23;20155;-81
2023/11/02 08:08:46;;;;;;;2.47;1.50;;;;;;;9.02;91.37;93123.72;6104580;23;20183;-81
2023/11/02 08:11:12;;;;;;;3.23;1.30;;;;;;;8.95;91.95;93113.34;6104589;23;20595;-82
2023/11/02 08:13:37;;;;;;;1.40;1.30;;;;;;;8.91;91.90;93113.91;6128930;23;20205;-82
2023/11/02 08:16:03;;;;;;;3.30;1.53;;;;;;;8.89;91.96;93108.94;6103736;23;20179;-82
2023/11/02 08:18:28;;;;;;;1.20;1.10;;;;;;;8.89;92.41;93092.63;6154607;23;20175;-81
2023/11/02 08:20:54;;;;;;;1.73;1.50;;;;;;;8.77;92.35;93100.97;6128942;23;20151;-81
2023/11/02 08:23:19;;;;;;;4.63;1.57;;;;;;;8.96;92.30;93096.03;6104896;23;20159;-82
2023/11/02 08:25:45;;;;;;;2.30;1.70;;;;;;;9.02;91.62;93093.44;6128511;23;20163;-83
2023/11/02 08:28:11;;;;;;;1.67;1.50;;;;;;;8.98;91.51;93099.19;6129359;23;20209;-82
2023/11/02 08:30:36;;;;;;;1.47;1.37;;;;;;;8.75;93.22;93097.00;6104708;23;20551;-81
2023/11/02 08:33:01;;;;;;;1.83;1.73;;;;;;;8.86;92.53;93100.78;6104302;23;20242;-81
2023/11/02 08:35:27;;;;;;;2.40;1.50;;;;;;;8.72;92.97;93094.78;6128332;23;20313;-81
2023/11/02 08:37:52;;;;;;;1.63;1.50;;;;;;;8.74;93.15;93080.63;6104599;23;20164;-81
2023/11/02 08:40:20;;;;;;;1.70;1.60;;;;;;;8.68;94.08;93071.09;6104588;23;20183;-81
2023/11/02 08:42:46;;;;;;;2.53;1.60;;;;;;;8.76;93.65;93072.69;6129970;23;20151;-81
2023/11/02 08:45:16;;;;;;;2.07;1.87;;;;;;;8.82;93.42;93071.09;6103275;23;20186;-80
2023/11/02 08:47:42;;;;;;;2.00;1.57;;;;;;;8.85;93.52;93061.16;6128722;23;20233;-80
2023/11/02 08:50:08;;;;;;;3.70;1.90;;;;;;;8.82;92.92;93068.50;6106071;23;20183;-79
2023/11/02 08:52:34;;;;;;;1.97;1.77;;;;;;;8.66;94.12;93067.91;6107052;23;20163;-80
2023/11/02 08:55:00;;;;;;;1.83;1.50;;;;;;;8.96;93.25;93076.09;6108359;23;20215;-77
2023/11/02 08:57:26;;;;;;;2.50;1.87;;;;;;;8.66;94.16;93062.72;6131633;23;20209;-80
2023/11/02 08:59:51;;;;;;;2.47;1.90;;;;;;;8.78;94.01;93070.72;6103904;23;20229;-80
2023/11/02 09:02:17;;;;;;;2.60;1.60;;;;;;;8.73;94.93;93071.28;6104760;23;20166;-80
2023/11/02 09:04:42;;;;;;;2.80;2.10;;;;;;;8.65;95.30;93076.63;6129096;23;20178;-82
2023/11/02 09:07:08;;;;;;;3.83;1.63;;;;;;;8.70;94.97;93083.81;6099714;23;20210;-80
2023/11/02 09:09:33;;;;;;;3.80;2.00;;;;;;;8.79;95.22;93088.63;6099569;23;20210;-82
2023/11/02 09:11:59;;;;;;;2.93;1.87;;;;;;;8.85;95.04;93086.25;6124589;23;20170;-81
2023/11/02 09:14:24;;;;;;;1.67;1.50;;;;;;;8.86;95.21;93111.13;6099449;23;20187;-81
2023/11/02 09:16:50;;;;;;;2.77;1.57;;;;;;;8.86;95.54;93109.34;6100050;23;20225;-81
2023/11/02 09:19:15;;;;;;;2.13;1.60;;;;;;;9.07;94.99;93095.44;6099245;23;20196;-82
2023/11/02 09:21:42;;;;;;;1.97;1.43;;;;;;;9.14;94.58;93093.66;6099509;23;20210;-81
2023/11/02 09:24:08;;;;;;;1.80;1.33;;;;;;;9.26;94.36;93096.44;6100685;23;20163;-80
2023/11/02 09:26:33;;;;;;;1.80;1.37;;;;;;;9.25;94.44;93097.44;6121331;23;20880;-83
2023/11/02 09:28:58;;;;;;;1.30;1.20;;;;;;;9.26;94.31;93101.59;6150132;23;20210;-80
2023/11/02 09:31:29;;;;;;;2.00;1.20;;;;;;;9.04;95.58;93095.84;6149697;23;20155;-81
2023/11/02 09:33:58;;;;;;;2.17;1.17;;;;;;;9.19;95.21;93106.81;6124406;23;20175;-80
2023/11/02 09:36:23;;;;;;;1.57;1.30;;;;;;;9.42;94.53;93087.47;6099386;23;20213;-80
2023/11/02 09:38:49;;;;;;;1.13;1.10;;;;;;;9.48;93.91;93084.88;6099698;23;20183;-80
2023/11/02 09:41:15;;;;;;;2.13;1.33;;;;;;;9.59;93.52;93086.06;6124235;23;20166;-80
2023/11/02 09:43:44;;;;;;;3.70;1.50;;;;;;;9.30;94.74;93077.72;6099283;23;20576;-82
2023/11/02 09:46:12;;;;;;;1.50;1.30;;;;;;;9.54;93.19;93076.31;6099883;23;20164;-79
2023/11/02 09:48:37;;;;;;;2.37;1.37;;;;;;;9.49;93.61;93070.13;6100155;23;20309;-80
2023/11/02 09:51:03;;;;;;;2.40;1.47;;;;;;;9.35;95.42;93082.28;6123585;23;20179;-80
2023/11/02 09:53:29;;;;;;;1.73;1.43;;;;;;;9.39;94.42;93073.13;6123617;23;20187;-82
2023/11/02 09:55:55;;;;;;;2.27;1.43;;;;;;;9.25;96.40;93081.88;6098550;23;20515;-81
2023/11/02 09:58:21;;;;;;;1.30;1.20;;;;;;;9.29;96.00;93078.72;6098784;23;20225;-81
2023/11/02 10:00:46;;;;;;;1.70;1.37;;;;;;;9.38;95.47;93079.31;6099048;23;20538;-80
2023/11/02 10:03:11;;;;;;;1.80;1.50;;;;;;;9.46;95.12;93060.97;6122078;23;20156;-81
2023/11/02 10:05:37;;;;;;;2.23;1.47;;;;;;;9.44;95.79;93064.75;6098663;23;20202;-81
2023/11/02 10:08:02;;;;;;;2.93;1.80;;;;;;;9.41;96.29;93065.16;6099806;23;20516;-81
2023/11/02 10:10:30;;;;;;;2.03;1.50;;;;;;;9.34;96.55;93052.19;6100016;23;20643;-81
2023/11/02 10:12:56;;;;;;;2.13;1.70;;;;;;;9.25;97.56;93038.66;6101248;23;20194;-82
2023/11/02 10:15:21;;;;;;;3.57;3.10;;;;;;;9.40;97.26;93032.47;6100913;23;20159;-81
2023/11/02 10:17:46;;;;;;;2.60;2.40;;;;;;;9.39;97.16;93036.88;6126742;23;20155;-82
2023/11/02 10:20:17;;;;;;;3.03;1.90;;;;;;;9.35;97.45;93028.69;6125752;23;20178;-80
2023/11/02 10:22:44;;;;;;;1.77;1.67;;;;;;;9.30;98.06;93032.91;6125808;23;20159;-81
2023/11/02 10:25:13;;;;;;;3.93;1.80;;;;;;;9.39;98.15;93033.47;6124856;23;20156;-81
2023/11/02 10:27:41;;;;;;;1.87;1.73;;;;;;;9.42;97.98;93041.63;6126137;23;20183;-81
2023/11/02 10:30:07;;;;;;;2.60;2.23;;;;;;;9.55;97.09;93025.28;6101285;23;20584;-80
2023/11/02 10:32:32;;;;;;;3.37;1.90;;;;;;;9.43;98.36;93024.31;6125690;23;20160;-80
2023/11/02 10:34:58;;;;;;;2.90;1.60;;;;;;;9.61;97.53;92994.16;6125585;23;20175;-81
2023/11/02 10:37:36;;;;;;;2.13;1.93;;;;;;;9.68;97.47;92991.56;6101385;23;20159;-81
2023/11/02 10:40:01;;;;;;;2.40;1.60;;;;;;;9.48;97.76;92972.69;6125742;23;20233;-83
2023/11/02 10:42:27;;;;;;;2.10;1.40;;;;;;;9.65;97.92;92986.78;6101474;23;20196;-81
2023/11/02 10:44:53;;;;;;;1.60;1.50;;;;;;;9.57;97.98;92971.47;6125139;23;20152;-80
2023/11/02 10:47:19;;;;;;;2.63;1.30;;;;;;;9.72;97.39;92974.63;6101413;23;20163;-79
2023/11/02 10:49:45;;;;;;;1.77;1.47;;;;;;;9.74;97.80;92967.44;6125950;23;20226;-80
2023/11/02 10:52:13;;;;;;;2.40;1.30;;;;;;;9.69;97.85;92972.41;6125466;23;20170;-79
2023/11/02 10:55:06;;;;;;;1.60;1.20;;;;;;;9.72;97.47;92976.38;6149917;23;20179;-80
2023/11/02 10:57:34;;;;;;;1.50;1.23;;;;;;;9.65;97.23;92968.66;6151843;23;20155;-80
2023/11/02 10:59:59;;;;;;;2.80;1.30;;;;;;;9.76;96.85;92964.63;6103204;23;20179;-81
2023/11/02 11:02:25;;;;;;;2.77;1.40;;;;;;;9.76;97.16;92967.22;6126643;23;20218;-81
2023/11/02 11:04:50;;;;;;;1.50;1.10;;;;;;;9.83;96.68;92973.97;6127281;23;20242;-80
2023/11/02 11:07:16;;;;;;;2.77;0.90;;;;;;;9.75;96.42;92986.38;6104514;23;20167;-80
2023/11/02 11:09:41;;;;;;;1.90;1.03;;;;;;;9.62;97.31;92984.59;6102988;23;20202;-79
2023/11/02 11:12:07;;;;;;;1.00;0.90;;;;;;;9.79;96.54;92985.72;6102514;23;20155;-80
2023/11/02 11:14:37;;;;;;;0.97;0.80;;;;;;;9.62;96.24;93008.72;6126017;23;20183;-79
2023/11/02 11:17:04;;;;;;;1.93;0.77;;;;;;;9.75;95.69;92994.13;6128342;23;20229;-80
2023/11/02 11:19:34;;;;;;;1.67;0.93;;;;;;;9.90;93.19;93008.44;6126983;23;20202;-80
2023/11/02 11:22:04;;;;;;;2.63;0.70;;;;;;;9.68;92.65;92995.94;6127303;23;20155;-82
2023/11/02 11:24:30;;;;;;;2.03;0.97;;;;;;;9.94;91.87;92999.25;6101527;23;20588;-81
2023/11/02 11:26:56;;;;;;;1.13;0.80;;;;;;;9.98;92.13;92996.22;6102842;23;20534;-81
2023/11/02 11:29:37;;;;;;;1.77;1.00;;;;;;;10.08;91.45;92984.44;6102216;23;20295;-82
2023/11/02 11:32:03;;;;;;;3.67;2.37;;;;;;;10.03;91.88;92986.06;6126782;23;20163;-80
2023/11/02 11:34:54;;;;;;;2.83;1.97;;;;;;;10.01;90.49;92998.44;6126261;23;20194;-83
2023/11/02 11:37:44;;;;;;;2.60;2.40;;;;;;;10.00;89.66;92982.09;6126608;23;20647;-81
2023/11/02 11:40:18;;;;;;;1.43;1.20;;;;;;;10.11;89.02;92983.22;6132312;23;20216;-82
2023/11/02 11:43:12;;;;;;;3.70;3.40;;;;;;;10.01;89.33;92981.06;6126662;23;20162;-82
2023/11/02 11:46:00;;;;;;;2.50;2.30;;;;;;;9.92;88.07;92969.34;6102700;23;20159;-82
2023/11/02 11:48:42;;;;;;;2.87;2.67;;;;;;;9.97;88.08;92950.56;6104839;23;20166;-80
2023/11/02 11:51:39;;;;;;;2.30;1.20;;;;;;;10.18;87.09;92913.97;6126672;23;20155;-82
2023/11/02 11:54:08;;;;;;;2.33;0.83;;;;;;;9.93;88.36;92925.06;6102752;23;20261;-82